You are listening to:
MMMX Twr/App - Mexico City, Mexico

MMMX 190846Z 00000KT 10SM SKC 16/M07 A3021 NOSIG RMK SLP020 57011 961 HZY

If stream doesn't start automatically press the play button
If stream stops then reload player then press play